sensor_id;sensor_type;location;lat;lon;timestamp;P1;durP1;ratioP1;P2;durP2;ratioP2
22937;SDS011;11634;42.734;23.298;2023-05-10T00:00:59;7.18;;;6.38;;
22937;SDS011;11634;42.734;23.298;2023-05-10T00:03:24;5.28;;;4.78;;
22937;SDS011;11634;42.734;23.298;2023-05-10T00:05:50;5.18;;;4.68;;
22937;SDS011;11634;42.734;23.298;2023-05-10T00:08:16;7.68;;;6.45;;
22937;SDS011;11634;42.734;23.298;2023-05-10T00:10:41;7.28;;;6.35;;
22937;SDS011;11634;42.734;23.298;2023-05-10T00:13:07;10.52;;;5.93;;
22937;SDS011;11634;42.734;23.298;2023-05-10T00:15:32;8.88;;;7.20;;
22937;SDS011;11634;42.734;23.298;2023-05-10T00:17:59;8.88;;;7.65;;
22937;SDS011;11634;42.734;23.298;2023-05-10T00:20:25;9.27;;;7.78;;
22937;SDS011;11634;42.734;23.298;2023-05-10T00:22:50;11.05;;;7.95;;
22937;SDS011;11634;42.734;23.298;2023-05-10T00:25:16;9.82;;;8.15;;
22937;SDS011;11634;42.734;23.298;2023-05-10T00:27:42;11.32;;;7.72;;
22937;SDS011;11634;42.734;23.298;2023-05-10T00:30:08;10.35;;;8.88;;
22937;SDS011;11634;42.734;23.298;2023-05-10T00:32:34;10.88;;;5.78;;
22937;SDS011;11634;42.734;23.298;2023-05-10T00:35:00;8.50;;;7.70;;
22937;SDS011;11634;42.734;23.298;2023-05-10T00:37:26;9.25;;;7.95;;
22937;SDS011;11634;42.734;23.298;2023-05-10T00:39:51;8.05;;;7.25;;
22937;SDS011;11634;42.734;23.298;2023-05-10T00:42:17;7.85;;;7.05;;
22937;SDS011;11634;42.734;23.298;2023-05-10T00:44:42;8.45;;;7.28;;
22937;SDS011;11634;42.734;23.298;2023-05-10T00:47:08;9.30;;;7.55;;
22937;SDS011;11634;42.734;23.298;2023-05-10T00:49:35;7.53;;;5.57;;
22937;SDS011;11634;42.734;23.298;2023-05-10T00:52:01;6.38;;;5.72;;
22937;SDS011;11634;42.734;23.298;2023-05-10T00:54:28;11.40;;;8.80;;
22937;SDS011;11634;42.734;23.298;2023-05-10T00:56:54;7.47;;;6.65;;
22937;SDS011;11634;42.734;23.298;2023-05-10T00:59:19;10.27;;;9.05;;
22937;SDS011;11634;42.734;23.298;2023-05-10T01:01:46;8.77;;;7.90;;
22937;SDS011;11634;42.734;23.298;2023-05-10T01:04:13;8.90;;;7.63;;
22937;SDS011;11634;42.734;23.298;2023-05-10T01:06:39;11.93;;;10.18;;
22937;SDS011;11634;42.734;23.298;2023-05-10T01:09:05;11.65;;;9.95;;
22937;SDS011;11634;42.734;23.298;2023-05-10T01:11:38;10.73;;;8.93;;
22937;SDS011;11634;42.734;23.298;2023-05-10T01:14:05;8.90;;;7.32;;
22937;SDS011;11634;42.734;23.298;2023-05-10T01:16:32;9.90;;;8.82;;
22937;SDS011;11634;42.734;23.298;2023-05-10T01:19:01;12.55;;;7.50;;
22937;SDS011;11634;42.734;23.298;2023-05-10T01:21:29;5.30;;;4.38;;
22937;SDS011;11634;42.734;23.298;2023-05-10T01:27:17;9.82;;;8.82;;
22937;SDS011;11634;42.734;23.298;2023-05-10T01:30:07;9.88;;;8.70;;
22937;SDS011;11634;42.734;23.298;2023-05-10T01:41:21;11.10;;;9.30;;
22937;SDS011;11634;42.734;23.298;2023-05-10T01:46:40;11.77;;;8.93;;
22937;SDS011;11634;42.734;23.298;2023-05-10T01:49:14;8.32;;;7.43;;
22937;SDS011;11634;42.734;23.298;2023-05-10T01:51:50;7.20;;;6.50;;
22937;SDS011;11634;42.734;23.298;2023-05-10T01:54:20;10.50;;;8.18;;
22937;SDS011;11634;42.734;23.298;2023-05-10T01:56:52;7.43;;;6.35;;
22937;SDS011;11634;42.734;23.298;2023-05-10T01:59:25;4.78;;;4.28;;
22937;SDS011;11634;42.734;23.298;2023-05-10T02:01:55;7.60;;;6.78;;
22937;SDS011;11634;42.734;23.298;2023-05-10T02:04:24;7.20;;;6.13;;
22937;SDS011;11634;42.734;23.298;2023-05-10T02:06:51;7.97;;;7.18;;
22937;SDS011;11634;42.734;23.298;2023-05-10T02:09:19;7.90;;;6.45;;
22937;SDS011;11634;42.734;23.298;2023-05-10T02:11:47;7.78;;;6.97;;
22937;SDS011;11634;42.734;23.298;2023-05-10T02:14:14;6.80;;;6.10;;
22937;SDS011;11634;42.734;23.298;2023-05-10T02:16:40;6.05;;;5.55;;
22937;SDS011;11634;42.734;23.298;2023-05-10T02:19:07;5.82;;;5.28;;
22937;SDS011;11634;42.734;23.298;2023-05-10T02:21:35;5.70;;;5.20;;
22937;SDS011;11634;42.734;23.298;2023-05-10T02:24:05;7.07;;;6.05;;
22937;SDS011;11634;42.734;23.298;2023-05-10T02:26:32;6.20;;;4.78;;
22937;SDS011;11634;42.734;23.298;2023-05-10T02:29:01;6.70;;;5.70;;
22937;SDS011;11634;42.734;23.298;2023-05-10T02:31:29;6.75;;;6.15;;
22937;SDS011;11634;42.734;23.298;2023-05-10T02:33:58;6.40;;;5.80;;
22937;SDS011;11634;42.734;23.298;2023-05-10T02:36:25;6.68;;;5.97;;
22937;SDS011;11634;42.734;23.298;2023-05-10T02:38:58;4.38;;;3.97;;
22937;SDS011;11634;42.734;23.298;2023-05-10T02:41:26;8.32;;;6.53;;
22937;SDS011;11634;42.734;23.298;2023-05-10T02:43:55;5.68;;;5.15;;
22937;SDS011;11634;42.734;23.298;2023-05-10T02:46:25;4.80;;;3.97;;
22937;SDS011;11634;42.734;23.298;2023-05-10T02:48:55;11.38;;;4.22;;
22937;SDS011;11634;42.734;23.298;2023-05-10T02:51:20;5.03;;;4.53;;
22937;SDS011;11634;42.734;23.298;2023-05-10T02:53:50;6.57;;;5.15;;
22937;SDS011;11634;42.734;23.298;2023-05-10T02:56:40;4.80;;;4.18;;
22937;SDS011;11634;42.734;23.298;2023-05-10T02:59:07;4.43;;;3.50;;
22937;SDS011;11634;42.734;23.298;2023-05-10T03:01:33;5.63;;;3.67;;
22937;SDS011;11634;42.734;23.298;2023-05-10T03:03:59;3.60;;;3.15;;
22937;SDS011;11634;42.734;23.298;2023-05-10T03:06:25;3.70;;;3.35;;
22937;SDS011;11634;42.734;23.298;2023-05-10T03:08:51;6.13;;;5.00;;
22937;SDS011;11634;42.734;23.298;2023-05-10T03:17:04;6.65;;;3.97;;
22937;SDS011;11634;42.734;23.298;2023-05-10T03:19:40;8.98;;;5.82;;
22937;SDS011;11634;42.734;23.298;2023-05-10T03:22:13;5.05;;;4.25;;
22937;SDS011;11634;42.734;23.298;2023-05-10T03:24:46;5.07;;;4.22;;
22937;SDS011;11634;42.734;23.298;2023-05-10T03:27:14;5.97;;;4.78;;
22937;SDS011;11634;42.734;23.298;2023-05-10T03:29:41;7.32;;;4.90;;
22937;SDS011;11634;42.734;23.298;2023-05-10T03:32:08;5.45;;;4.22;;
22937;SDS011;11634;42.734;23.298;2023-05-10T03:34:35;5.85;;;5.25;;
22937;SDS011;11634;42.734;23.298;2023-05-10T03:37:08;4.38;;;3.85;;
22937;SDS011;11634;42.734;23.298;2023-05-10T03:39:34;4.07;;;3.10;;
22937;SDS011;11634;42.734;23.298;2023-05-10T03:42:01;6.60;;;4.95;;
22937;SDS011;11634;42.734;23.298;2023-05-10T03:44:26;4.53;;;3.40;;
22937;SDS011;11634;42.734;23.298;2023-05-10T03:46:52;8.43;;;4.40;;
22937;SDS011;11634;42.734;23.298;2023-05-10T03:49:18;6.25;;;5.65;;
22937;SDS011;11634;42.734;23.298;2023-05-10T03:51:43;6.32;;;4.45;;
22937;SDS011;11634;42.734;23.298;2023-05-10T03:54:09;4.43;;;3.75;;
22937;SDS011;11634;42.734;23.298;2023-05-10T03:56:35;5.07;;;3.92;;
22937;SDS011;11634;42.734;23.298;2023-05-10T03:59:01;6.75;;;5.18;;
22937;SDS011;11634;42.734;23.298;2023-05-10T04:01:26;5.72;;;5.18;;
22937;SDS011;11634;42.734;23.298;2023-05-10T04:03:52;8.70;;;5.57;;
22937;SDS011;11634;42.734;23.298;2023-05-10T04:06:18;4.97;;;4.53;;
22937;SDS011;11634;42.734;23.298;2023-05-10T04:08:44;5.60;;;4.72;;
22937;SDS011;11634;42.734;23.298;2023-05-10T04:11:10;7.85;;;4.78;;
22937;SDS011;11634;42.734;23.298;2023-05-10T04:13:37;8.02;;;3.45;;
22937;SDS011;11634;42.734;23.298;2023-05-10T04:16:03;3.95;;;3.55;;
22937;SDS011;11634;42.734;23.298;2023-05-10T04:18:29;4.80;;;3.75;;
22937;SDS011;11634;42.734;23.298;2023-05-10T04:20:55;5.85;;;3.20;;
22937;SDS011;11634;42.734;23.298;2023-05-10T04:23:21;3.88;;;3.13;;
22937;SDS011;11634;42.734;23.298;2023-05-10T04:25:46;3.65;;;3.33;;
22937;SDS011;11634;42.734;23.298;2023-05-10T04:28:12;3.30;;;2.72;;
22937;SDS011;11634;42.734;23.298;2023-05-10T04:30:38;4.63;;;4.15;;
22937;SDS011;11634;42.734;23.298;2023-05-10T04:33:04;4.20;;;3.35;;
22937;SDS011;11634;42.734;23.298;2023-05-10T04:35:29;5.60;;;4.55;;
22937;SDS011;11634;42.734;23.298;2023-05-10T04:37:55;5.88;;;3.17;;
22937;SDS011;11634;42.734;23.298;2023-05-10T04:40:20;4.97;;;3.10;;
22937;SDS011;11634;42.734;23.298;2023-05-10T04:42:46;3.97;;;3.40;;
22937;SDS011;11634;42.734;23.298;2023-05-10T04:45:12;4.22;;;3.42;;
22937;SDS011;11634;42.734;23.298;2023-05-10T04:47:39;4.78;;;3.60;;
22937;SDS011;11634;42.734;23.298;2023-05-10T04:50:05;6.28;;;4.47;;
22937;SDS011;11634;42.734;23.298;2023-05-10T04:52:32;4.85;;;4.10;;
22937;SDS011;11634;42.734;23.298;2023-05-10T04:54:57;6.72;;;5.43;;
22937;SDS011;11634;42.734;23.298;2023-05-10T04:57:23;6.32;;;5.28;;
22937;SDS011;11634;42.734;23.298;2023-05-10T04:59:49;5.15;;;4.60;;
22937;SDS011;11634;42.734;23.298;2023-05-10T05:02:14;6.80;;;4.07;;
22937;SDS011;11634;42.734;23.298;2023-05-10T05:04:40;8.82;;;5.97;;
22937;SDS011;11634;42.734;23.298;2023-05-10T05:07:05;7.63;;;5.88;;
22937;SDS011;11634;42.734;23.298;2023-05-10T05:09:31;7.25;;;6.07;;
22937;SDS011;11634;42.734;23.298;2023-05-10T05:11:59;7.28;;;5.93;;
22937;SDS011;11634;42.734;23.298;2023-05-10T05:14:25;6.75;;;6.10;;
22937;SDS011;11634;42.734;23.298;2023-05-10T05:16:51;6.82;;;4.78;;
22937;SDS011;11634;42.734;23.298;2023-05-10T05:19:17;8.10;;;6.60;;
22937;SDS011;11634;42.734;23.298;2023-05-10T05:21:43;5.95;;;4.93;;
22937;SDS011;11634;42.734;23.298;2023-05-10T05:24:08;5.93;;;5.20;;
22937;SDS011;11634;42.734;23.298;2023-05-10T05:26:35;6.10;;;4.88;;
22937;SDS011;11634;42.734;23.298;2023-05-10T05:29:01;9.25;;;5.22;;
22937;SDS011;11634;42.734;23.298;2023-05-10T05:31:27;7.90;;;6.13;;
22937;SDS011;11634;42.734;23.298;2023-05-10T05:33:53;6.43;;;5.32;;
22937;SDS011;11634;42.734;23.298;2023-05-10T05:36:19;8.98;;;5.72;;
22937;SDS011;11634;42.734;23.298;2023-05-10T05:38:44;9.88;;;4.72;;
22937;SDS011;11634;42.734;23.298;2023-05-10T05:41:10;8.00;;;6.50;;
22937;SDS011;11634;42.734;23.298;2023-05-10T05:43:36;8.48;;;5.97;;
22937;SDS011;11634;42.734;23.298;2023-05-10T05:46:01;7.38;;;5.93;;
22937;SDS011;11634;42.734;23.298;2023-05-10T05:48:27;9.25;;;6.88;;
22937;SDS011;11634;42.734;23.298;2023-05-10T05:50:55;5.80;;;4.78;;
22937;SDS011;11634;42.734;23.298;2023-05-10T05:53:21;5.88;;;5.13;;
22937;SDS011;11634;42.734;23.298;2023-05-10T05:55:51;4.78;;;4.10;;
22937;SDS011;11634;42.734;23.298;2023-05-10T05:58:21;9.30;;;6.78;;
22937;SDS011;11634;42.734;23.298;2023-05-10T06:00:47;5.40;;;3.78;;
22937;SDS011;11634;42.734;23.298;2023-05-10T06:03:13;6.78;;;5.85;;
22937;SDS011;11634;42.734;23.298;2023-05-10T06:05:38;5.75;;;4.30;;
22937;SDS011;11634;42.734;23.298;2023-05-10T06:08:04;5.30;;;4.32;;
22937;SDS011;11634;42.734;23.298;2023-05-10T06:10:30;7.20;;;5.47;;
22937;SDS011;11634;42.734;23.298;2023-05-10T06:12:56;5.18;;;3.67;;
22937;SDS011;11634;42.734;23.298;2023-05-10T06:15:21;7.82;;;6.20;;
22937;SDS011;11634;42.734;23.298;2023-05-10T06:17:47;8.13;;;6.00;;
22937;SDS011;11634;42.734;23.298;2023-05-10T06:20:14;7.95;;;6.38;;
22937;SDS011;11634;42.734;23.298;2023-05-10T06:22:40;6.78;;;5.65;;
22937;SDS011;11634;42.734;23.298;2023-05-10T06:25:06;6.38;;;5.47;;
22937;SDS011;11634;42.734;23.298;2023-05-10T06:27:33;8.40;;;6.10;;
22937;SDS011;11634;42.734;23.298;2023-05-10T06:29:58;8.00;;;6.10;;
22937;SDS011;11634;42.734;23.298;2023-05-10T06:32:24;4.97;;;4.03;;
22937;SDS011;11634;42.734;23.298;2023-05-10T06:34:49;7.70;;;5.97;;
22937;SDS011;11634;42.734;23.298;2023-05-10T06:37:15;4.03;;;3.30;;
22937;SDS011;11634;42.734;23.298;2023-05-10T06:39:41;4.28;;;3.88;;
22937;SDS011;11634;42.734;23.298;2023-05-10T06:42:06;4.88;;;4.40;;
22937;SDS011;11634;42.734;23.298;2023-05-10T06:44:32;6.43;;;4.75;;
22937;SDS011;11634;42.734;23.298;2023-05-10T06:47:00;8.02;;;6.28;;
22937;SDS011;11634;42.734;23.298;2023-05-10T06:49:26;6.05;;;5.20;;
22937;SDS011;11634;42.734;23.298;2023-05-10T06:51:51;6.95;;;5.13;;
22937;SDS011;11634;42.734;23.298;2023-05-10T06:54:17;6.13;;;5.47;;
22937;SDS011;11634;42.734;23.298;2023-05-10T06:56:43;6.78;;;5.38;;
22937;SDS011;11634;42.734;23.298;2023-05-10T06:59:08;6.20;;;5.03;;
22937;SDS011;11634;42.734;23.298;2023-05-10T07:01:34;7.25;;;4.93;;
22937;SDS011;11634;42.734;23.298;2023-05-10T07:04:06;6.00;;;4.40;;
22937;SDS011;11634;42.734;23.298;2023-05-10T07:06:32;5.78;;;4.22;;
22937;SDS011;11634;42.734;23.298;2023-05-10T07:08:58;5.72;;;5.00;;
22937;SDS011;11634;42.734;23.298;2023-05-10T07:11:24;9.45;;;5.65;;
22937;SDS011;11634;42.734;23.298;2023-05-10T07:13:50;8.25;;;5.20;;
22937;SDS011;11634;42.734;23.298;2023-05-10T07:16:15;8.75;;;6.20;;
22937;SDS011;11634;42.734;23.298;2023-05-10T07:18:41;8.63;;;6.15;;
22937;SDS011;11634;42.734;23.298;2023-05-10T07:21:07;8.35;;;6.15;;
22937;SDS011;11634;42.734;23.298;2023-05-10T07:23:32;5.72;;;4.95;;
22937;SDS011;11634;42.734;23.298;2023-05-10T07:25:58;6.63;;;5.85;;
22937;SDS011;11634;42.734;23.298;2023-05-10T07:28:24;5.95;;;4.15;;
22937;SDS011;11634;42.734;23.298;2023-05-10T07:30:50;6.10;;;4.03;;
22937;SDS011;11634;42.734;23.298;2023-05-10T07:33:15;6.38;;;4.97;;
22937;SDS011;11634;42.734;23.298;2023-05-10T07:35:41;5.10;;;4.28;;
22937;SDS011;11634;42.734;23.298;2023-05-10T07:38:07;5.53;;;5.03;;
22937;SDS011;11634;42.734;23.298;2023-05-10T07:40:33;6.07;;;5.13;;
22937;SDS011;11634;42.734;23.298;2023-05-10T07:42:59;6.78;;;6.18;;
22937;SDS011;11634;42.734;23.298;2023-05-10T07:45:26;8.43;;;5.50;;
22937;SDS011;11634;42.734;23.298;2023-05-10T07:47:52;6.82;;;5.55;;
22937;SDS011;11634;42.734;23.298;2023-05-10T07:50:18;6.78;;;5.53;;
22937;SDS011;11634;42.734;23.298;2023-05-10T07:52:43;7.35;;;6.32;;
22937;SDS011;11634;42.734;23.298;2023-05-10T07:55:09;8.10;;;4.72;;
22937;SDS011;11634;42.734;23.298;2023-05-10T07:57:35;6.13;;;4.78;;
22937;SDS011;11634;42.734;23.298;2023-05-10T08:00:01;4.25;;;3.85;;
22937;SDS011;11634;42.734;23.298;2023-05-10T08:02:38;8.52;;;4.82;;
22937;SDS011;11634;42.734;23.298;2023-05-10T08:05:04;4.50;;;4.05;;
22937;SDS011;11634;42.734;23.298;2023-05-10T08:07:30;7.15;;;5.97;;
22937;SDS011;11634;42.734;23.298;2023-05-10T08:09:56;8.05;;;6.00;;
22937;SDS011;11634;42.734;23.298;2023-05-10T08:12:22;6.28;;;5.40;;
22937;SDS011;11634;42.734;23.298;2023-05-10T08:14:47;8.52;;;6.78;;
22937;SDS011;11634;42.734;23.298;2023-05-10T08:17:13;6.80;;;5.65;;
22937;SDS011;11634;42.734;23.298;2023-05-10T08:19:38;6.43;;;5.38;;
22937;SDS011;11634;42.734;23.298;2023-05-10T08:22:04;5.70;;;4.70;;
22937;SDS011;11634;42.734;23.298;2023-05-10T08:24:30;6.55;;;5.35;;
22937;SDS011;11634;42.734;23.298;2023-05-10T08:26:56;7.15;;;6.32;;
22937;SDS011;11634;42.734;23.298;2023-05-10T08:29:28;4.43;;;4.00;;
22937;SDS011;11634;42.734;23.298;2023-05-10T08:31:53;5.88;;;5.18;;
22937;SDS011;11634;42.734;23.298;2023-05-10T08:34:20;6.35;;;4.95;;
22937;SDS011;11634;42.734;23.298;2023-05-10T08:36:45;7.95;;;6.97;;
22937;SDS011;11634;42.734;23.298;2023-05-10T08:39:11;7.57;;;6.10;;
22937;SDS011;11634;42.734;23.298;2023-05-10T08:41:36;8.85;;;7.03;;
22937;SDS011;11634;42.734;23.298;2023-05-10T08:44:05;9.43;;;7.00;;
22937;SDS011;11634;42.734;23.298;2023-05-10T08:46:33;10.98;;;7.20;;
22937;SDS011;11634;42.734;23.298;2023-05-10T08:49:03;8.95;;;6.85;;
22937;SDS011;11634;42.734;23.298;2023-05-10T08:51:32;7.38;;;5.88;;
22937;SDS011;11634;42.734;23.298;2023-05-10T08:54:02;7.25;;;6.55;;
22937;SDS011;11634;42.734;23.298;2023-05-10T08:56:29;6.15;;;4.35;;
22937;SDS011;11634;42.734;23.298;2023-05-10T08:58:55;6.82;;;5.78;;
22937;SDS011;11634;42.734;23.298;2023-05-10T09:01:21;7.72;;;6.93;;
22937;SDS011;11634;42.734;23.298;2023-05-10T09:03:47;8.43;;;6.40;;
22937;SDS011;11634;42.734;23.298;2023-05-10T09:06:13;7.60;;;6.22;;
22937;SDS011;11634;42.734;23.298;2023-05-10T09:08:40;7.38;;;6.57;;
22937;SDS011;11634;42.734;23.298;2023-05-10T09:11:07;7.85;;;6.50;;
22937;SDS011;11634;42.734;23.298;2023-05-10T09:13:34;6.25;;;5.13;;
22937;SDS011;11634;42.734;23.298;2023-05-10T09:16:01;6.93;;;5.15;;
22937;SDS011;11634;42.734;23.298;2023-05-10T09:18:28;6.05;;;5.30;;
22937;SDS011;11634;42.734;23.298;2023-05-10T09:20:54;6.75;;;4.80;;
22937;SDS011;11634;42.734;23.298;2023-05-10T09:23:20;5.38;;;4.32;;
22937;SDS011;11634;42.734;23.298;2023-05-10T09:26:01;8.07;;;6.43;;
22937;SDS011;11634;42.734;23.298;2023-05-10T09:28:31;5.82;;;5.13;;
22937;SDS011;11634;42.734;23.298;2023-05-10T09:30:57;6.70;;;5.20;;
22937;SDS011;11634;42.734;23.298;2023-05-10T09:33:23;8.55;;;6.10;;
22937;SDS011;11634;42.734;23.298;2023-05-10T09:35:49;6.70;;;5.78;;
22937;SDS011;11634;42.734;23.298;2023-05-10T09:38:17;10.63;;;7.50;;
22937;SDS011;11634;42.734;23.298;2023-05-10T09:40:45;7.70;;;6.97;;
22937;SDS011;11634;42.734;23.298;2023-05-10T09:43:23;12.60;;;6.28;;
22937;SDS011;11634;42.734;23.298;2023-05-10T09:45:52;7.13;;;6.10;;
22937;SDS011;11634;42.734;23.298;2023-05-10T09:48:18;6.70;;;5.90;;
22937;SDS011;11634;42.734;23.298;2023-05-10T09:50:56;8.77;;;7.38;;
22937;SDS011;11634;42.734;23.298;2023-05-10T09:53:22;8.98;;;6.25;;
22937;SDS011;11634;42.734;23.298;2023-05-10T09:55:48;5.95;;;5.43;;
22937;SDS011;11634;42.734;23.298;2023-05-10T09:58:15;9.90;;;6.93;;
22937;SDS011;11634;42.734;23.298;2023-05-10T10:00:42;5.28;;;4.72;;
22937;SDS011;11634;42.734;23.298;2023-05-10T10:03:13;6.40;;;5.80;;
22937;SDS011;11634;42.734;23.298;2023-05-10T10:05:40;6.95;;;5.85;;
22937;SDS011;11634;42.734;23.298;2023-05-10T10:08:09;9.27;;;5.38;;
22937;SDS011;11634;42.734;23.298;2023-05-10T10:10:35;7.40;;;6.13;;
22937;SDS011;11634;42.734;23.298;2023-05-10T10:13:01;7.53;;;6.68;;
22937;SDS011;11634;42.734;23.298;2023-05-10T10:15:27;4.93;;;4.43;;
22937;SDS011;11634;42.734;23.298;2023-05-10T10:17:53;7.88;;;5.50;;
22937;SDS011;11634;42.734;23.298;2023-05-10T10:20:20;9.70;;;6.70;;
22937;SDS011;11634;42.734;23.298;2023-05-10T10:22:47;5.45;;;4.95;;
22937;SDS011;11634;42.734;23.298;2023-05-10T10:25:14;4.60;;;4.13;;
22937;SDS011;11634;42.734;23.298;2023-05-10T10:35:31;4.60;;;4.20;;
22937;SDS011;11634;42.734;23.298;2023-05-10T10:37:58;5.18;;;4.22;;
22937;SDS011;11634;42.734;23.298;2023-05-10T10:40:24;10.02;;;5.50;;
22937;SDS011;11634;42.734;23.298;2023-05-10T10:42:57;9.25;;;5.53;;
22937;SDS011;11634;42.734;23.298;2023-05-10T10:45:24;6.03;;;5.43;;
22937;SDS011;11634;42.734;23.298;2023-05-10T10:50:43;6.53;;;5.63;;
22937;SDS011;11634;42.734;23.298;2023-05-10T10:53:10;5.93;;;4.53;;
22937;SDS011;11634;42.734;23.298;2023-05-10T10:55:37;6.38;;;5.32;;
22937;SDS011;11634;42.734;23.298;2023-05-10T10:58:12;9.30;;;5.78;;
22937;SDS011;11634;42.734;23.298;2023-05-10T11:00:54;4.95;;;4.45;;
22937;SDS011;11634;42.734;23.298;2023-05-10T11:03:41;6.13;;;5.22;;
22937;SDS011;11634;42.734;23.298;2023-05-10T11:06:39;7.80;;;5.53;;
22937;SDS011;11634;42.734;23.298;2023-05-10T11:09:06;6.82;;;6.13;;
22937;SDS011;11634;42.734;23.298;2023-05-10T11:11:34;8.13;;;6.70;;
22937;SDS011;11634;42.734;23.298;2023-05-10T11:14:04;10.27;;;7.03;;
22937;SDS011;11634;42.734;23.298;2023-05-10T11:16:40;9.52;;;6.07;;
22937;SDS011;11634;42.734;23.298;2023-05-10T11:19:16;5.65;;;5.13;;
22937;SDS011;11634;42.734;23.298;2023-05-10T11:24:22;8.27;;;5.97;;
22937;SDS011;11634;42.734;23.298;2023-05-10T11:26:52;7.88;;;6.43;;
22937;SDS011;11634;42.734;23.298;2023-05-10T11:29:19;6.28;;;5.68;;
22937;SDS011;11634;42.734;23.298;2023-05-10T11:31:45;9.10;;;5.50;;
22937;SDS011;11634;42.734;23.298;2023-05-10T11:34:12;5.95;;;4.82;;
22937;SDS011;11634;42.734;23.298;2023-05-10T11:36:50;5.43;;;4.93;;
22937;SDS011;11634;42.734;23.298;2023-05-10T11:39:16;7.05;;;5.57;;
22937;SDS011;11634;42.734;23.298;2023-05-10T11:41:41;7.57;;;5.13;;
22937;SDS011;11634;42.734;23.298;2023-05-10T11:44:08;8.82;;;5.70;;
22937;SDS011;11634;42.734;23.298;2023-05-10T11:46:34;7.40;;;5.55;;
22937;SDS011;11634;42.734;23.298;2023-05-10T11:49:01;6.03;;;5.15;;
22937;SDS011;11634;42.734;23.298;2023-05-10T11:51:32;8.65;;;5.60;;
22937;SDS011;11634;42.734;23.298;2023-05-10T11:54:01;6.35;;;5.10;;
22937;SDS011;11634;42.734;23.298;2023-05-10T11:56:36;6.70;;;5.65;;
22937;SDS011;11634;42.734;23.298;2023-05-10T11:59:03;6.95;;;6.07;;
22937;SDS011;11634;42.734;23.298;2023-05-10T12:01:29;7.85;;;5.38;;
22937;SDS011;11634;42.734;23.298;2023-05-10T12:03:56;6.88;;;5.13;;
22937;SDS011;11634;42.734;23.298;2023-05-10T12:06:26;9.38;;;5.70;;
22937;SDS011;11634;42.734;23.298;2023-05-10T12:08:53;7.13;;;5.28;;
22937;SDS011;11634;42.734;23.298;2023-05-10T12:11:19;7.15;;;6.03;;
22937;SDS011;11634;42.734;23.298;2023-05-10T12:13:46;6.30;;;5.65;;
22937;SDS011;11634;42.734;23.298;2023-05-10T12:16:13;5.47;;;4.85;;
22937;SDS011;11634;42.734;23.298;2023-05-10T12:18:41;7.82;;;5.57;;
22937;SDS011;11634;42.734;23.298;2023-05-10T12:21:09;7.95;;;5.57;;
22937;SDS011;11634;42.734;23.298;2023-05-10T12:23:37;5.70;;;4.60;;
22937;SDS011;11634;42.734;23.298;2023-05-10T12:26:07;8.70;;;7.50;;
22937;SDS011;11634;42.734;23.298;2023-05-10T12:28:33;10.30;;;6.05;;
22937;SDS011;11634;42.734;23.298;2023-05-10T12:31:00;8.05;;;6.05;;
22937;SDS011;11634;42.734;23.298;2023-05-10T12:33:27;7.07;;;5.32;;
22937;SDS011;11634;42.734;23.298;2023-05-10T12:36:02;6.68;;;5.90;;
22937;SDS011;11634;42.734;23.298;2023-05-10T12:38:29;6.30;;;5.70;;
22937;SDS011;11634;42.734;23.298;2023-05-10T12:41:17;8.30;;;5.55;;
22937;SDS011;11634;42.734;23.298;2023-05-10T12:43:41;8.57;;;6.30;;
22937;SDS011;11634;42.734;23.298;2023-05-10T12:46:16;6.68;;;5.70;;
22937;SDS011;11634;42.734;23.298;2023-05-10T12:48:43;5.97;;;5.22;;
22937;SDS011;11634;42.734;23.298;2023-05-10T12:51:08;5.40;;;4.68;;
22937;SDS011;11634;42.734;23.298;2023-05-10T12:53:35;8.88;;;6.00;;
22937;SDS011;11634;42.734;23.298;2023-05-10T12:56:00;8.13;;;6.22;;
22937;SDS011;11634;42.734;23.298;2023-05-10T12:58:26;8.45;;;5.68;;
22937;SDS011;11634;42.734;23.298;2023-05-10T13:00:51;8.30;;;5.65;;
22937;SDS011;11634;42.734;23.298;2023-05-10T13:03:17;8.48;;;6.82;;
22937;SDS011;11634;42.734;23.298;2023-05-10T13:05:43;9.02;;;5.78;;
22937;SDS011;11634;42.734;23.298;2023-05-10T13:08:08;7.15;;;4.93;;
22937;SDS011;11634;42.734;23.298;2023-05-10T13:10:34;10.02;;;5.85;;
22937;SDS011;11634;42.734;23.298;2023-05-10T13:13:00;7.43;;;6.20;;
22937;SDS011;11634;42.734;23.298;2023-05-10T13:15:26;7.70;;;6.15;;
22937;SDS011;11634;42.734;23.298;2023-05-10T13:17:52;6.80;;;5.90;;
22937;SDS011;11634;42.734;23.298;2023-05-10T13:20:19;9.05;;;5.07;;
22937;SDS011;11634;42.734;23.298;2023-05-10T13:22:45;7.25;;;5.45;;
22937;SDS011;11634;42.734;23.298;2023-05-10T13:25:12;5.72;;;5.15;;
22937;SDS011;11634;42.734;23.298;2023-05-10T13:27:38;6.30;;;4.25;;
22937;SDS011;11634;42.734;23.298;2023-05-10T13:30:05;8.20;;;5.32;;
22937;SDS011;11634;42.734;23.298;2023-05-10T13:32:31;6.53;;;5.47;;
22937;SDS011;11634;42.734;23.298;2023-05-10T13:34:59;5.97;;;5.28;;
22937;SDS011;11634;42.734;23.298;2023-05-10T13:37:25;6.68;;;5.40;;
22937;SDS011;11634;42.734;23.298;2023-05-10T13:39:50;5.72;;;5.13;;
22937;SDS011;11634;42.734;23.298;2023-05-10T13:42:17;7.10;;;5.45;;
22937;SDS011;11634;42.734;23.298;2023-05-10T13:44:44;7.07;;;5.22;;
22937;SDS011;11634;42.734;23.298;2023-05-10T13:47:10;8.23;;;6.22;;
22937;SDS011;11634;42.734;23.298;2023-05-10T13:49:36;5.97;;;4.85;;
22937;SDS011;11634;42.734;23.298;2023-05-10T13:52:04;6.22;;;5.43;;
22937;SDS011;11634;42.734;23.298;2023-05-10T13:54:34;7.75;;;5.72;;
22937;SDS011;11634;42.734;23.298;2023-05-10T13:57:00;12.38;;;5.65;;
22937;SDS011;11634;42.734;23.298;2023-05-10T13:59:26;9.23;;;5.82;;
22937;SDS011;11634;42.734;23.298;2023-05-10T14:01:52;7.07;;;6.25;;
22937;SDS011;11634;42.734;23.298;2023-05-10T14:04:17;6.95;;;5.78;;
22937;SDS011;11634;42.734;23.298;2023-05-10T14:06:43;8.82;;;6.20;;
22937;SDS011;11634;42.734;23.298;2023-05-10T14:09:09;6.20;;;4.13;;
22937;SDS011;11634;42.734;23.298;2023-05-10T14:11:34;9.40;;;5.70;;
22937;SDS011;11634;42.734;23.298;2023-05-10T14:14:00;7.53;;;5.38;;
22937;SDS011;11634;42.734;23.298;2023-05-10T14:16:26;11.32;;;6.20;;
22937;SDS011;11634;42.734;23.298;2023-05-10T14:18:52;6.75;;;5.72;;
22937;SDS011;11634;42.734;23.298;2023-05-10T14:21:20;7.15;;;6.15;;
22937;SDS011;11634;42.734;23.298;2023-05-10T14:23:46;6.15;;;4.82;;
22937;SDS011;11634;42.734;23.298;2023-05-10T14:26:15;6.85;;;5.90;;
22937;SDS011;11634;42.734;23.298;2023-05-10T14:28:43;8.82;;;5.65;;
22937;SDS011;11634;42.734;23.298;2023-05-10T14:31:08;5.85;;;5.20;;
22937;SDS011;11634;42.734;23.298;2023-05-10T14:33:34;6.45;;;5.78;;
22937;SDS011;11634;42.734;23.298;2023-05-10T14:35:59;6.45;;;5.70;;
22937;SDS011;11634;42.734;23.298;2023-05-10T14:38:25;8.68;;;5.97;;
22937;SDS011;11634;42.734;23.298;2023-05-10T14:40:51;7.63;;;5.72;;
22937;SDS011;11634;42.734;23.298;2023-05-10T14:43:17;7.28;;;5.32;;
22937;SDS011;11634;42.734;23.298;2023-05-10T14:45:42;12.02;;;6.03;;
22937;SDS011;11634;42.734;23.298;2023-05-10T14:48:08;6.07;;;5.47;;
22937;SDS011;11634;42.734;23.298;2023-05-10T14:50:37;9.48;;;6.53;;
22937;SDS011;11634;42.734;23.298;2023-05-10T14:53:03;7.35;;;5.70;;
22937;SDS011;11634;42.734;23.298;2023-05-10T14:55:29;8.20;;;6.47;;
22937;SDS011;11634;42.734;23.298;2023-05-10T14:57:55;6.82;;;6.10;;
22937;SDS011;11634;42.734;23.298;2023-05-10T15:00:20;7.57;;;5.65;;
22937;SDS011;11634;42.734;23.298;2023-05-10T15:02:46;7.30;;;5.68;;
22937;SDS011;11634;42.734;23.298;2023-05-10T15:05:13;9.07;;;6.55;;
22937;SDS011;11634;42.734;23.298;2023-05-10T15:07:39;7.35;;;6.22;;